South Labrador Sea: Past 24 Hour Conditions

 

Ferolle Point

10:30 AM NST 28 November 2014
This table is a summary of hourly weather conditions for the past 24 hours.
Date / Time
(NST)
Wind(knots) Conditions Visibility(km) Pressure(kPa) Air tempC) Relative humidity(%) Dew pointC) Wind Chill
28 November 2014
10:30 N 8 N/A N/A 101.3 -6 77 -9 -12
9:30 NNE 11 N/A N/A 101.3 -6 77 -9 -12
8:30 NNE 10 gust 16 N/A N/A 101.2 -6 76 -9 -12
7:30 N 16 N/A N/A 101.1 -6 78 -9 -14
6:30 NNE 16 N/A N/A 101.0 -5 80 -8 -13
5:30 N 18 N/A N/A 101.0 -5 81 -8 -14
4:30 N 19 N/A N/A 100.9 -5 81 -8 -13
3:30 N 20 N/A N/A 100.8 -5 81 -7 -13
2:30 NNE 17 gust 23 N/A N/A 100.6 -4 82 -7 -12
1:30 N 24 gust 31 N/A N/A 100.4 -4 85 -6 -13
0:30 NNE 28 gust 33 N/A N/A 100.4 -4 85 -6 -13
27 November 2014
23:30 NNE 31 gust 37 N/A N/A 100.3 -4 89 -5 -13
22:30 NNE 33 gust 39 N/A N/A 100.2 -4 91 -5 -14
21:30 NNE 36 gust 44 N/A N/A 100.1 -4 95 -4 -14
20:30 NNE 34 gust 40 N/A N/A 100.1 -3 97 -4 -14
19:30 NNE 39 gust 48 N/A N/A 99.9 -3 96 -4 -14
18:30 NNE 39 gust 47 N/A N/A 100.0 -3 98 -3 -14
17:30 NE 36 gust 45 N/A N/A 100.0 -2 98 -3 -13
16:30 NE 34 gust 40 N/A N/A 100.0 -2 99 -2 -12
15:30 NE 28 gust 35 N/A N/A 100.1 -2 99 -2 -11
14:30 NE 25 gust 30 N/A N/A 100.2 -2 99 -2 -10
13:30 NE 20 gust 25 N/A N/A 100.5 -2 99 -2 -9
12:30 ENE 16 gust 22 N/A N/A 100.6 -2 99 -2 -9
11:30 ENE 16 N/A N/A 100.8 -2 99 -3 -10
10:30 ENE 11 gust 16 N/A N/A 101.1 -3 98 -3 -9
 
Map of Atlantic - Newfoundland marine weather areas Southwestern Grand Banks - 44138 Banquereau - 44139 Tail of the Bank - 44140 Nickerson Bank - 44251 Northeast Burgeo Bank - 44255 Blanc-Sablon Airport Cap Whittle Chevery Natashquan Airport Heath Point Miscou Island Grand Étang Ingonish Beach North Mountain St.Paul Island J.A. Douglas McCurdy Sydney Airport Charlottetown Airport East Point North Cape Argentia Bonavista Burgeo Cape Race Corner Brook Daniel's Harbour Englee Ferolle Point La Scie Port aux Basques Rocky Harbour Sagona Island St. Anthony Airport St. John's Int'l Airport St. Lawrence Stephenville Airport Twillingate Winterland Wreckhouse Cartwright Airport Mary's Harbour Grates Cove Pool's Island Marticot Island Long Pond Îles de la Madeleine Airport
Legend: buoyBuoy land stationLand Station